sensor_id;sensor_type;location;lat;lon;timestamp;temperature;humidity
13707;DHT22;6925;47.816;13.072;2022-10-30T00:00:31;17.10;62.00
13707;DHT22;6925;47.816;13.072;2022-10-30T00:02:59;17.10;61.80
13707;DHT22;6925;47.816;13.072;2022-10-30T00:05:26;17.00;61.60
13707;DHT22;6925;47.816;13.072;2022-10-30T00:07:54;17.00;62.20
13707;DHT22;6925;47.816;13.072;2022-10-30T00:10:22;17.00;62.30
13707;DHT22;6925;47.816;13.072;2022-10-30T00:12:51;17.00;62.40
13707;DHT22;6925;47.816;13.072;2022-10-30T00:15:20;17.00;62.10
13707;DHT22;6925;47.816;13.072;2022-10-30T00:17:48;16.90;61.90
13707;DHT22;6925;47.816;13.072;2022-10-30T00:20:15;17.00;61.90
13707;DHT22;6925;47.816;13.072;2022-10-30T00:22:42;16.90;61.40
13707;DHT22;6925;47.816;13.072;2022-10-30T00:25:09;16.90;61.60
13707;DHT22;6925;47.816;13.072;2022-10-30T00:27:36;16.90;61.70
13707;DHT22;6925;47.816;13.072;2022-10-30T00:30:07;16.90;61.60
13707;DHT22;6925;47.816;13.072;2022-10-30T00:32:34;16.90;61.50
13707;DHT22;6925;47.816;13.072;2022-10-30T00:35:02;16.90;61.50
13707;DHT22;6925;47.816;13.072;2022-10-30T00:37:29;16.90;61.30
13707;DHT22;6925;47.816;13.072;2022-10-30T00:39:57;16.90;61.70
13707;DHT22;6925;47.816;13.072;2022-10-30T00:42:28;16.90;61.60
13707;DHT22;6925;47.816;13.072;2022-10-30T00:44:56;16.90;61.60
13707;DHT22;6925;47.816;13.072;2022-10-30T00:47:27;16.90;61.70
13707;DHT22;6925;47.816;13.072;2022-10-30T00:49:58;16.90;61.50
13707;DHT22;6925;47.816;13.072;2022-10-30T00:52:29;16.90;61.50
13707;DHT22;6925;47.816;13.072;2022-10-30T00:55:00;16.80;61.80
13707;DHT22;6925;47.816;13.072;2022-10-30T00:57:29;16.80;61.80
13707;DHT22;6925;47.816;13.072;2022-10-30T00:59:56;16.80;62.00
13707;DHT22;6925;47.816;13.072;2022-10-30T01:02:28;16.80;62.20
13707;DHT22;6925;47.816;13.072;2022-10-30T01:04:55;16.80;62.60
13707;DHT22;6925;47.816;13.072;2022-10-30T01:07:22;16.80;62.30
13707;DHT22;6925;47.816;13.072;2022-10-30T01:09:49;16.80;62.20
13707;DHT22;6925;47.816;13.072;2022-10-30T01:12:16;16.80;62.60
13707;DHT22;6925;47.816;13.072;2022-10-30T01:14:46;16.80;62.50
13707;DHT22;6925;47.816;13.072;2022-10-30T01:17:35;16.80;62.70
13707;DHT22;6925;47.816;13.072;2022-10-30T01:20:17;16.80;63.00
13707;DHT22;6925;47.816;13.072;2022-10-30T01:22:53;16.80;63.10
13707;DHT22;6925;47.816;13.072;2022-10-30T01:25:37;16.80;63.10
13707;DHT22;6925;47.816;13.072;2022-10-30T01:28:21;16.80;62.70
13707;DHT22;6925;47.816;13.072;2022-10-30T01:31:02;16.80;62.90
13707;DHT22;6925;47.816;13.072;2022-10-30T01:33:44;16.70;62.70
13707;DHT22;6925;47.816;13.072;2022-10-30T01:36:21;16.70;63.20
13707;DHT22;6925;47.816;13.072;2022-10-30T01:38:52;16.70;62.80
13707;DHT22;6925;47.816;13.072;2022-10-30T01:41:20;16.70;62.60
13707;DHT22;6925;47.816;13.072;2022-10-30T01:43:47;16.60;62.60
13707;DHT22;6925;47.816;13.072;2022-10-30T01:46:34;16.60;62.50
13707;DHT22;6925;47.816;13.072;2022-10-30T01:52:02;16.60;62.70
13707;DHT22;6925;47.816;13.072;2022-10-30T01:54:37;16.60;62.70
13707;DHT22;6925;47.816;13.072;2022-10-30T01:57:10;16.60;62.90
13707;DHT22;6925;47.816;13.072;2022-10-30T01:59:38;16.50;62.90
13707;DHT22;6925;47.816;13.072;2022-10-30T02:02:06;16.40;63.00
13707;DHT22;6925;47.816;13.072;2022-10-30T02:04:36;16.40;63.20
13707;DHT22;6925;47.816;13.072;2022-10-30T02:07:06;16.40;63.50
13707;DHT22;6925;47.816;13.072;2022-10-30T02:09:34;16.40;63.30
13707;DHT22;6925;47.816;13.072;2022-10-30T02:12:02;16.40;63.60
13707;DHT22;6925;47.816;13.072;2022-10-30T02:14:32;16.40;63.60
13707;DHT22;6925;47.816;13.072;2022-10-30T02:17:03;16.40;63.50
13707;DHT22;6925;47.816;13.072;2022-10-30T02:19:31;16.30;63.00
13707;DHT22;6925;47.816;13.072;2022-10-30T02:22:00;16.30;62.80
13707;DHT22;6925;47.816;13.072;2022-10-30T02:24:28;16.30;63.10
13707;DHT22;6925;47.816;13.072;2022-10-30T02:26:55;16.30;63.10
13707;DHT22;6925;47.816;13.072;2022-10-30T02:29:22;16.30;63.10
13707;DHT22;6925;47.816;13.072;2022-10-30T02:31:50;16.20;63.50
13707;DHT22;6925;47.816;13.072;2022-10-30T02:34:17;16.20;63.10
13707;DHT22;6925;47.816;13.072;2022-10-30T02:36:44;16.20;63.10
13707;DHT22;6925;47.816;13.072;2022-10-30T02:39:13;16.10;62.80
13707;DHT22;6925;47.816;13.072;2022-10-30T02:41:40;16.10;62.60
13707;DHT22;6925;47.816;13.072;2022-10-30T02:44:07;16.10;62.50
13707;DHT22;6925;47.816;13.072;2022-10-30T02:46:35;16.10;62.80
13707;DHT22;6925;47.816;13.072;2022-10-30T02:49:02;16.10;62.80
13707;DHT22;6925;47.816;13.072;2022-10-30T02:51:30;16.10;62.90
13707;DHT22;6925;47.816;13.072;2022-10-30T02:53:58;16.00;63.30
13707;DHT22;6925;47.816;13.072;2022-10-30T02:56:27;16.00;63.10
13707;DHT22;6925;47.816;13.072;2022-10-30T02:58:55;16.00;62.80
13707;DHT22;6925;47.816;13.072;2022-10-30T03:01:22;16.00;63.10
13707;DHT22;6925;47.816;13.072;2022-10-30T03:03:49;16.00;62.90
13707;DHT22;6925;47.816;13.072;2022-10-30T03:06:17;16.00;63.10
13707;DHT22;6925;47.816;13.072;2022-10-30T03:08:44;16.00;63.10
13707;DHT22;6925;47.816;13.072;2022-10-30T03:11:13;16.00;63.10
13707;DHT22;6925;47.816;13.072;2022-10-30T03:13:43;16.00;63.10
13707;DHT22;6925;47.816;13.072;2022-10-30T03:16:13;16.00;63.00
13707;DHT22;6925;47.816;13.072;2022-10-30T03:18:41;16.00;63.10
13707;DHT22;6925;47.816;13.072;2022-10-30T03:21:11;16.00;63.20
13707;DHT22;6925;47.816;13.072;2022-10-30T03:23:39;16.00;63.00
13707;DHT22;6925;47.816;13.072;2022-10-30T03:26:06;15.90;63.20
13707;DHT22;6925;47.816;13.072;2022-10-30T03:28:33;16.00;63.30
13707;DHT22;6925;47.816;13.072;2022-10-30T03:31:02;16.00;63.10
13707;DHT22;6925;47.816;13.072;2022-10-30T03:33:30;16.00;63.20
13707;DHT22;6925;47.816;13.072;2022-10-30T03:35:58;16.00;63.50
13707;DHT22;6925;47.816;13.072;2022-10-30T03:38:26;16.00;63.50
13707;DHT22;6925;47.816;13.072;2022-10-30T03:40:53;16.00;63.70
13707;DHT22;6925;47.816;13.072;2022-10-30T03:43:21;16.00;63.80
13707;DHT22;6925;47.816;13.072;2022-10-30T03:45:50;16.00;63.60
13707;DHT22;6925;47.816;13.072;2022-10-30T03:48:21;16.00;63.50
13707;DHT22;6925;47.816;13.072;2022-10-30T03:50:48;16.00;63.80
13707;DHT22;6925;47.816;13.072;2022-10-30T03:53:15;16.00;63.70
13707;DHT22;6925;47.816;13.072;2022-10-30T03:55:43;16.00;63.90
13707;DHT22;6925;47.816;13.072;2022-10-30T03:58:10;15.90;63.70
13707;DHT22;6925;47.816;13.072;2022-10-30T04:00:37;15.90;63.80
13707;DHT22;6925;47.816;13.072;2022-10-30T04:03:07;15.90;63.90
13707;DHT22;6925;47.816;13.072;2022-10-30T04:05:36;15.90;63.50
13707;DHT22;6925;47.816;13.072;2022-10-30T04:08:10;15.80;63.60
13707;DHT22;6925;47.816;13.072;2022-10-30T04:10:41;15.80;63.40
13707;DHT22;6925;47.816;13.072;2022-10-30T04:13:10;15.80;63.60
13707;DHT22;6925;47.816;13.072;2022-10-30T04:15:38;15.80;63.30
13707;DHT22;6925;47.816;13.072;2022-10-30T04:18:05;15.80;63.30
13707;DHT22;6925;47.816;13.072;2022-10-30T04:20:32;15.80;63.70
13707;DHT22;6925;47.816;13.072;2022-10-30T04:23:02;15.80;63.40
13707;DHT22;6925;47.816;13.072;2022-10-30T04:25:31;15.70;63.30
13707;DHT22;6925;47.816;13.072;2022-10-30T04:28:00;15.80;63.70
13707;DHT22;6925;47.816;13.072;2022-10-30T04:30:27;15.80;63.60
13707;DHT22;6925;47.816;13.072;2022-10-30T04:32:58;15.80;63.80
13707;DHT22;6925;47.816;13.072;2022-10-30T04:35:29;15.80;63.50
13707;DHT22;6925;47.816;13.072;2022-10-30T04:37:58;15.80;63.40
13707;DHT22;6925;47.816;13.072;2022-10-30T04:40:29;15.80;63.10
13707;DHT22;6925;47.816;13.072;2022-10-30T04:42:57;15.80;63.00
13707;DHT22;6925;47.816;13.072;2022-10-30T04:45:25;15.80;63.10
13707;DHT22;6925;47.816;13.072;2022-10-30T04:47:54;15.70;62.90
13707;DHT22;6925;47.816;13.072;2022-10-30T04:50:25;15.70;63.00
13707;DHT22;6925;47.816;13.072;2022-10-30T04:52:57;15.70;63.40
13707;DHT22;6925;47.816;13.072;2022-10-30T04:55:24;15.70;63.70
13707;DHT22;6925;47.816;13.072;2022-10-30T04:57:56;15.70;63.60
13707;DHT22;6925;47.816;13.072;2022-10-30T05:00:24;15.70;63.60
13707;DHT22;6925;47.816;13.072;2022-10-30T05:02:52;15.70;63.50
13707;DHT22;6925;47.816;13.072;2022-10-30T05:05:19;15.60;63.30
13707;DHT22;6925;47.816;13.072;2022-10-30T05:07:47;15.60;63.50
13707;DHT22;6925;47.816;13.072;2022-10-30T05:10:14;15.60;63.80
13707;DHT22;6925;47.816;13.072;2022-10-30T05:12:43;15.60;63.90
13707;DHT22;6925;47.816;13.072;2022-10-30T05:15:12;15.60;63.90
13707;DHT22;6925;47.816;13.072;2022-10-30T05:17:40;15.60;63.60
13707;DHT22;6925;47.816;13.072;2022-10-30T05:20:08;15.60;63.80
13707;DHT22;6925;47.816;13.072;2022-10-30T05:22:36;15.60;64.00
13707;DHT22;6925;47.816;13.072;2022-10-30T05:25:04;15.60;63.90
13707;DHT22;6925;47.816;13.072;2022-10-30T05:27:31;15.60;64.30
13707;DHT22;6925;47.816;13.072;2022-10-30T05:29:58;15.60;64.00
13707;DHT22;6925;47.816;13.072;2022-10-30T05:32:27;15.50;63.60
13707;DHT22;6925;47.816;13.072;2022-10-30T05:34:55;15.50;63.60
13707;DHT22;6925;47.816;13.072;2022-10-30T05:37:22;15.50;63.40
13707;DHT22;6925;47.816;13.072;2022-10-30T05:39:49;15.50;63.50
13707;DHT22;6925;47.816;13.072;2022-10-30T05:42:16;15.50;63.30
13707;DHT22;6925;47.816;13.072;2022-10-30T05:44:43;15.50;63.60
13707;DHT22;6925;47.816;13.072;2022-10-30T05:47:11;15.50;63.40
13707;DHT22;6925;47.816;13.072;2022-10-30T05:49:40;15.50;63.40
13707;DHT22;6925;47.816;13.072;2022-10-30T05:52:07;15.40;63.40
13707;DHT22;6925;47.816;13.072;2022-10-30T05:54:34;15.50;64.40
13707;DHT22;6925;47.816;13.072;2022-10-30T05:57:01;15.40;63.50
13707;DHT22;6925;47.816;13.072;2022-10-30T05:59:28;15.40;63.60
13707;DHT22;6925;47.816;13.072;2022-10-30T06:01:55;15.40;63.80
13707;DHT22;6925;47.816;13.072;2022-10-30T06:04:23;15.40;63.90
13707;DHT22;6925;47.816;13.072;2022-10-30T06:06:51;15.40;63.70
13707;DHT22;6925;47.816;13.072;2022-10-30T06:09:18;15.40;63.70
13707;DHT22;6925;47.816;13.072;2022-10-30T06:11:45;15.40;63.90
13707;DHT22;6925;47.816;13.072;2022-10-30T06:14:12;15.40;63.90
13707;DHT22;6925;47.816;13.072;2022-10-30T06:16:39;15.40;63.90
13707;DHT22;6925;47.816;13.072;2022-10-30T06:19:06;15.40;64.00
13707;DHT22;6925;47.816;13.072;2022-10-30T06:21:34;15.50;63.80
13707;DHT22;6925;47.816;13.072;2022-10-30T06:24:03;15.50;63.80
13707;DHT22;6925;47.816;13.072;2022-10-30T06:26:31;15.50;63.90
13707;DHT22;6925;47.816;13.072;2022-10-30T06:28:58;15.50;63.70
13707;DHT22;6925;47.816;13.072;2022-10-30T06:31:25;15.50;63.70
13707;DHT22;6925;47.816;13.072;2022-10-30T06:33:55;15.50;64.00
13707;DHT22;6925;47.816;13.072;2022-10-30T06:36:22;15.50;63.10
13707;DHT22;6925;47.816;13.072;2022-10-30T06:38:49;15.50;63.70
13707;DHT22;6925;47.816;13.072;2022-10-30T06:41:18;15.50;63.90
13707;DHT22;6925;47.816;13.072;2022-10-30T06:43:45;15.60;63.90
13707;DHT22;6925;47.816;13.072;2022-10-30T06:46:12;15.60;63.70
13707;DHT22;6925;47.816;13.072;2022-10-30T06:48:39;15.60;63.90
13707;DHT22;6925;47.816;13.072;2022-10-30T06:51:07;15.60;64.00
13707;DHT22;6925;47.816;13.072;2022-10-30T06:53:34;15.60;63.70
13707;DHT22;6925;47.816;13.072;2022-10-30T06:56:01;15.60;63.60
13707;DHT22;6925;47.816;13.072;2022-10-30T06:58:31;15.60;63.30
13707;DHT22;6925;47.816;13.072;2022-10-30T07:01:04;15.70;64.50
13707;DHT22;6925;47.816;13.072;2022-10-30T07:03:35;15.70;64.30
13707;DHT22;6925;47.816;13.072;2022-10-30T07:06:26;15.70;64.10
13707;DHT22;6925;47.816;13.072;2022-10-30T07:09:07;15.80;64.60
13707;DHT22;6925;47.816;13.072;2022-10-30T07:11:35;15.80;63.70
13707;DHT22;6925;47.816;13.072;2022-10-30T07:14:04;15.90;64.10
13707;DHT22;6925;47.816;13.072;2022-10-30T07:16:31;15.90;64.50
13707;DHT22;6925;47.816;13.072;2022-10-30T07:18:59;15.90;64.50
13707;DHT22;6925;47.816;13.072;2022-10-30T07:21:26;15.90;63.60
13707;DHT22;6925;47.816;13.072;2022-10-30T07:23:53;16.00;64.80
13707;DHT22;6925;47.816;13.072;2022-10-30T07:26:21;16.00;65.20
13707;DHT22;6925;47.816;13.072;2022-10-30T07:28:48;16.00;64.80
13707;DHT22;6925;47.816;13.072;2022-10-30T07:31:17;16.10;64.30
13707;DHT22;6925;47.816;13.072;2022-10-30T07:33:44;16.20;64.30
13707;DHT22;6925;47.816;13.072;2022-10-30T07:36:11;16.20;64.90
13707;DHT22;6925;47.816;13.072;2022-10-30T07:38:39;16.30;64.70
13707;DHT22;6925;47.816;13.072;2022-10-30T07:41:07;16.30;65.20
13707;DHT22;6925;47.816;13.072;2022-10-30T07:43:34;16.30;65.50
13707;DHT22;6925;47.816;13.072;2022-10-30T07:46:02;16.30;65.60
13707;DHT22;6925;47.816;13.072;2022-10-30T07:48:39;16.30;66.30
13707;DHT22;6925;47.816;13.072;2022-10-30T07:51:07;16.30;65.80
13707;DHT22;6925;47.816;13.072;2022-10-30T07:53:34;16.30;66.30
13707;DHT22;6925;47.816;13.072;2022-10-30T07:56:03;16.40;67.00
13707;DHT22;6925;47.816;13.072;2022-10-30T07:58:34;16.40;66.20
13707;DHT22;6925;47.816;13.072;2022-10-30T08:01:06;16.50;66.80
13707;DHT22;6925;47.816;13.072;2022-10-30T08:03:35;16.60;67.20
13707;DHT22;6925;47.816;13.072;2022-10-30T08:06:02;16.90;67.60
13707;DHT22;6925;47.816;13.072;2022-10-30T08:08:29;17.10;67.00
13707;DHT22;6925;47.816;13.072;2022-10-30T08:10:57;17.30;67.20
13707;DHT22;6925;47.816;13.072;2022-10-30T08:13:24;17.50;64.30
13707;DHT22;6925;47.816;13.072;2022-10-30T08:37:00;19.30;61.70
13707;DHT22;6925;47.816;13.072;2022-10-30T08:39:31;19.40;62.80
13707;DHT22;6925;47.816;13.072;2022-10-30T08:42:07;19.60;62.60
13707;DHT22;6925;47.816;13.072;2022-10-30T08:45:04;19.70;62.80
13707;DHT22;6925;47.816;13.072;2022-10-30T08:52:45;20.50;62.90
13707;DHT22;6925;47.816;13.072;2022-10-30T08:55:13;20.80;62.10
13707;DHT22;6925;47.816;13.072;2022-10-30T08:57:44;20.90;61.60
13707;DHT22;6925;47.816;13.072;2022-10-30T09:00:16;21.20;60.50
13707;DHT22;6925;47.816;13.072;2022-10-30T09:02:45;21.40;60.90
13707;DHT22;6925;47.816;13.072;2022-10-30T09:05:19;21.60;61.00
13707;DHT22;6925;47.816;13.072;2022-10-30T09:07:53;21.80;60.80
13707;DHT22;6925;47.816;13.072;2022-10-30T09:13:24;22.20;59.30
13707;DHT22;6925;47.816;13.072;2022-10-30T09:15:53;22.40;59.90
13707;DHT22;6925;47.816;13.072;2022-10-30T09:18:23;22.50;57.80
13707;DHT22;6925;47.816;13.072;2022-10-30T09:20:50;22.40;55.10
13707;DHT22;6925;47.816;13.072;2022-10-30T09:23:20;22.30;54.00
13707;DHT22;6925;47.816;13.072;2022-10-30T09:25:49;22.10;52.60
13707;DHT22;6925;47.816;13.072;2022-10-30T09:28:22;22.10;53.10
13707;DHT22;6925;47.816;13.072;2022-10-30T09:30:51;22.20;55.10
13707;DHT22;6925;47.816;13.072;2022-10-30T09:33:27;22.30;54.00
13707;DHT22;6925;47.816;13.072;2022-10-30T09:47:11;22.70;51.90
13707;DHT22;6925;47.816;13.072;2022-10-30T09:49:56;23.00;51.60
13707;DHT22;6925;47.816;13.072;2022-10-30T09:52:28;23.10;50.60
13707;DHT22;6925;47.816;13.072;2022-10-30T09:55:25;23.20;51.60
13707;DHT22;6925;47.816;13.072;2022-10-30T10:34:48;24.70;47.10
13707;DHT22;6925;47.816;13.072;2022-10-30T10:59:22;25.90;45.10
13707;DHT22;6925;47.816;13.072;2022-10-30T11:01:57;26.00;44.20
13707;DHT22;6925;47.816;13.072;2022-10-30T11:04:30;26.10;45.60
13707;DHT22;6925;47.816;13.072;2022-10-30T11:07:14;26.30;44.50
13707;DHT22;6925;47.816;13.072;2022-10-30T11:09:47;26.60;46.30
13707;DHT22;6925;47.816;13.072;2022-10-30T11:12:23;27.00;45.00
13707;DHT22;6925;47.816;13.072;2022-10-30T11:42:33;28.50;41.40
13707;DHT22;6925;47.816;13.072;2022-10-30T11:45:35;28.50;41.20
13707;DHT22;6925;47.816;13.072;2022-10-30T11:53:29;28.60;41.30
13707;DHT22;6925;47.816;13.072;2022-10-30T11:58:22;29.00;40.90
13707;DHT22;6925;47.816;13.072;2022-10-30T12:01:21;29.00;40.40
13707;DHT22;6925;47.816;13.072;2022-10-30T12:03:55;29.20;40.70
13707;DHT22;6925;47.816;13.072;2022-10-30T12:40:15;29.20;38.10
13707;DHT22;6925;47.816;13.072;2022-10-30T12:51:10;28.90;38.60
13707;DHT22;6925;47.816;13.072;2022-10-30T12:53:50;28.80;39.40
13707;DHT22;6925;47.816;13.072;2022-10-30T13:01:46;28.50;39.40
13707;DHT22;6925;47.816;13.072;2022-10-30T13:20:52;27.70;39.70
13707;DHT22;6925;47.816;13.072;2022-10-30T13:23:51;27.70;40.70
13707;DHT22;6925;47.816;13.072;2022-10-30T13:26:42;27.60;41.10
13707;DHT22;6925;47.816;13.072;2022-10-30T13:29:19;27.50;40.30
13707;DHT22;6925;47.816;13.072;2022-10-30T13:38:37;27.00;40.50
13707;DHT22;6925;47.816;13.072;2022-10-30T13:41:17;26.80;42.10
13707;DHT22;6925;47.816;13.072;2022-10-30T13:43:53;26.80;43.10
13707;DHT22;6925;47.816;13.072;2022-10-30T16:14:18;22.50;56.50
13707;DHT22;6925;47.816;13.072;2022-10-30T16:27:14;21.90;57.30
13707;DHT22;6925;47.816;13.072;2022-10-30T16:35:02;21.50;58.10
13707;DHT22;6925;47.816;13.072;2022-10-30T16:37:33;21.40;58.10
13707;DHT22;6925;47.816;13.072;2022-10-30T16:40:12;21.30;58.30
13707;DHT22;6925;47.816;13.072;2022-10-30T16:42:58;21.30;58.40
13707;DHT22;6925;47.816;13.072;2022-10-30T16:45:49;21.10;58.50
13707;DHT22;6925;47.816;13.072;2022-10-30T16:48:27;20.90;58.60
13707;DHT22;6925;47.816;13.072;2022-10-30T16:51:02;20.80;59.10
13707;DHT22;6925;47.816;13.072;2022-10-30T16:53:30;20.70;59.50
13707;DHT22;6925;47.816;13.072;2022-10-30T16:55:58;20.60;59.60
13707;DHT22;6925;47.816;13.072;2022-10-30T16:58:29;20.50;59.50
13707;DHT22;6925;47.816;13.072;2022-10-30T17:01:02;20.50;59.70
13707;DHT22;6925;47.816;13.072;2022-10-30T17:03:35;20.40;59.80
13707;DHT22;6925;47.816;13.072;2022-10-30T17:06:23;20.30;59.90
13707;DHT22;6925;47.816;13.072;2022-10-30T17:08:52;20.30;59.80
13707;DHT22;6925;47.816;13.072;2022-10-30T17:11:33;20.20;59.70
13707;DHT22;6925;47.816;13.072;2022-10-30T17:14:04;20.20;60.00
13707;DHT22;6925;47.816;13.072;2022-10-30T17:16:36;20.10;59.90
13707;DHT22;6925;47.816;13.072;2022-10-30T17:22:15;20.00;59.90
13707;DHT22;6925;47.816;13.072;2022-10-30T17:24:43;20.00;60.00
13707;DHT22;6925;47.816;13.072;2022-10-30T17:27:42;19.90;59.80
13707;DHT22;6925;47.816;13.072;2022-10-30T17:30:33;19.80;60.00
13707;DHT22;6925;47.816;13.072;2022-10-30T17:33:01;19.70;60.40
13707;DHT22;6925;47.816;13.072;2022-10-30T17:35:29;19.60;60.40
13707;DHT22;6925;47.816;13.072;2022-10-30T17:37:58;19.50;61.10
13707;DHT22;6925;47.816;13.072;2022-10-30T17:40:26;19.40;60.80
13707;DHT22;6925;47.816;13.072;2022-10-30T17:42:53;19.40;60.70
13707;DHT22;6925;47.816;13.072;2022-10-30T17:45:20;19.40;60.70
13707;DHT22;6925;47.816;13.072;2022-10-30T17:47:48;19.40;60.90
13707;DHT22;6925;47.816;13.072;2022-10-30T17:50:16;19.40;61.00
13707;DHT22;6925;47.816;13.072;2022-10-30T17:56:13;19.20;61.50
13707;DHT22;6925;47.816;13.072;2022-10-30T17:58:42;19.20;61.30
13707;DHT22;6925;47.816;13.072;2022-10-30T18:01:12;19.10;61.80
13707;DHT22;6925;47.816;13.072;2022-10-30T18:03:40;19.00;62.20
13707;DHT22;6925;47.816;13.072;2022-10-30T18:06:14;19.00;62.20
13707;DHT22;6925;47.816;13.072;2022-10-30T18:08:42;18.90;62.50
13707;DHT22;6925;47.816;13.072;2022-10-30T18:11:13;18.80;62.80
13707;DHT22;6925;47.816;13.072;2022-10-30T18:13:41;18.90;62.50
13707;DHT22;6925;47.816;13.072;2022-10-30T18:16:09;18.80;62.60
13707;DHT22;6925;47.816;13.072;2022-10-30T18:18:38;18.70;62.70
13707;DHT22;6925;47.816;13.072;2022-10-30T18:21:08;18.70;62.60
13707;DHT22;6925;47.816;13.072;2022-10-30T18:23:36;18.70;62.90
13707;DHT22;6925;47.816;13.072;2022-10-30T18:26:03;18.60;63.00
13707;DHT22;6925;47.816;13.072;2022-10-30T18:28:32;18.60;63.00
13707;DHT22;6925;47.816;13.072;2022-10-30T18:31:00;18.60;63.10
13707;DHT22;6925;47.816;13.072;2022-10-30T18:33:27;18.60;63.20
13707;DHT22;6925;47.816;13.072;2022-10-30T18:35:58;18.50;63.30
13707;DHT22;6925;47.816;13.072;2022-10-30T18:38:35;18.50;63.10
13707;DHT22;6925;47.816;13.072;2022-10-30T18:41:13;18.40;63.00
13707;DHT22;6925;47.816;13.072;2022-10-30T18:43:57;18.40;63.30
13707;DHT22;6925;47.816;13.072;2022-10-30T18:46:32;18.40;63.30
13707;DHT22;6925;47.816;13.072;2022-10-30T18:49:10;18.40;63.60
13707;DHT22;6925;47.816;13.072;2022-10-30T18:51:47;18.40;63.50
13707;DHT22;6925;47.816;13.072;2022-10-30T18:54:15;18.40;63.30
13707;DHT22;6925;47.816;13.072;2022-10-30T18:56:47;18.40;63.50
13707;DHT22;6925;47.816;13.072;2022-10-30T18:59:32;18.40;63.70
13707;DHT22;6925;47.816;13.072;2022-10-30T19:02:00;18.30;63.70
13707;DHT22;6925;47.816;13.072;2022-10-30T19:04:33;18.30;63.70
13707;DHT22;6925;47.816;13.072;2022-10-30T19:07:07;18.30;63.90
13707;DHT22;6925;47.816;13.072;2022-10-30T19:09:38;18.30;63.90
13707;DHT22;6925;47.816;13.072;2022-10-30T21:11:33;16.80;66.50
13707;DHT22;6925;47.816;13.072;2022-10-30T21:14:01;16.80;66.60
13707;DHT22;6925;47.816;13.072;2022-10-30T21:16:48;16.80;66.90
13707;DHT22;6925;47.816;13.072;2022-10-30T21:19:27;16.80;67.00
13707;DHT22;6925;47.816;13.072;2022-10-30T21:22:16;16.80;66.70
13707;DHT22;6925;47.816;13.072;2022-10-30T21:24:59;16.80;67.00
13707;DHT22;6925;47.816;13.072;2022-10-30T21:27:36;16.80;67.10
13707;DHT22;6925;47.816;13.072;2022-10-30T21:30:10;16.60;67.10
